createdAt,value
2022-11-28T00:02:29.228Z,6.26
2022-11-28T00:07:31.072Z,5.79
2022-11-28T00:12:34.607Z,5.41
2022-11-28T00:17:36.244Z,5.06
2022-11-28T00:22:37.883Z,5.78
2022-11-28T00:27:39.700Z,8.73
2022-11-28T00:32:41.315Z,10.37
2022-11-28T00:37:42.897Z,9.46
2022-11-28T00:42:44.521Z,7.76
2022-11-28T00:47:47.658Z,6.80
2022-11-28T00:52:49.774Z,6.13
2022-11-28T00:57:51.378Z,5.58
2022-11-28T01:02:53.428Z,5.12
2022-11-28T01:07:55.200Z,4.76
2022-11-28T01:12:56.841Z,5.62
2022-11-28T01:17:59.146Z,8.54
2022-11-28T01:23:00.866Z,10.17
2022-11-28T01:28:02.647Z,9.43
2022-11-28T01:33:04.240Z,7.75
2022-11-28T01:38:05.876Z,6.78
2022-11-28T01:43:09.563Z,6.12
2022-11-28T01:48:17.720Z,5.56
2022-11-28T01:53:20.567Z,5.09
2022-11-28T01:58:22.982Z,5.76
2022-11-28T02:03:37.595Z,8.64
2022-11-28T02:08:39.293Z,10.29
2022-11-28T02:14:02.040Z,9.47
2022-11-28T02:19:28.295Z,7.67
2022-11-28T02:25:08.141Z,6.63
2022-11-28T02:30:19.518Z,5.87
2022-11-28T02:35:45.342Z,5.31
2022-11-28T02:41:28.392Z,4.84
2022-11-28T02:46:59.633Z,4.46
2022-11-28T02:52:14.857Z,4.19
2022-11-28T02:57:16.551Z,5.17
2022-11-28T03:02:31.082Z,8.17
2022-11-28T03:07:59.888Z,9.95
2022-11-28T03:13:26.227Z,9.75
2022-11-28T03:18:46.614Z,7.75
2022-11-28T03:24:06.439Z,6.60
2022-11-28T03:29:18.376Z,5.82
2022-11-28T03:34:24.417Z,5.22
2022-11-28T03:39:35.509Z,4.74
2022-11-28T03:44:55.811Z,5.46
2022-11-28T03:50:04.666Z,8.58
2022-11-28T03:55:17.629Z,10.10
2022-11-28T04:00:19.489Z,10.04
2022-11-28T04:05:51.507Z,8.04
2022-11-28T04:11:00.053Z,6.66
2022-11-28T04:16:13.439Z,5.93
2022-11-28T04:21:30.372Z,8.63
2022-11-28T04:26:41.720Z,10.70
2022-11-28T04:31:45.839Z,9.82
2022-11-28T04:36:49.361Z,7.73
2022-11-28T04:42:13.867Z,6.52
2022-11-28T04:47:15.966Z,5.66
2022-11-28T04:52:37.125Z,5.02
2022-11-28T04:57:45.044Z,4.50
2022-11-28T05:02:51.208Z,5.87
2022-11-28T05:07:52.983Z,9.29
2022-11-28T05:12:54.709Z,10.63
2022-11-28T05:17:56.462Z,8.88
2022-11-28T05:22:58.138Z,7.04
2022-11-28T05:27:59.865Z,5.98
2022-11-28T05:33:02.174Z,6.86
2022-11-28T05:38:03.760Z,9.29
2022-11-28T05:43:05.440Z,10.32
2022-11-28T05:48:07.077Z,9.02
2022-11-28T05:53:09.926Z,7.10
2022-11-28T05:58:11.693Z,5.98
2022-11-28T06:03:13.357Z,5.23
2022-11-28T06:08:15.428Z,5.94
2022-11-28T06:13:17.075Z,8.57
2022-11-28T06:18:18.714Z,9.90
2022-11-28T06:23:20.311Z,9.70
2022-11-28T06:28:21.923Z,7.60
2022-11-28T06:33:23.642Z,6.30
2022-11-28T06:38:25.263Z,5.59
2022-11-28T06:43:27.267Z,7.58
2022-11-28T06:48:29.354Z,9.63
2022-11-28T06:53:31.839Z,10.10
2022-11-28T06:58:34.394Z,8.15
2022-11-28T07:03:37.178Z,6.70
2022-11-28T07:08:39.080Z,5.78
2022-11-28T07:13:41.908Z,6.46
2022-11-28T07:18:44.904Z,9.02
2022-11-28T07:23:47.881Z,10.33
2022-11-28T07:28:50.867Z,9.69
2022-11-28T07:33:53.926Z,7.78
2022-11-28T07:38:59.138Z,6.65
2022-11-28T07:44:03.092Z,5.96
2022-11-28T07:49:04.820Z,7.70
2022-11-28T07:54:07.436Z,9.81
2022-11-28T07:59:09.243Z,10.82
2022-11-28T08:04:10.998Z,10.52
2022-11-28T08:09:13.039Z,8.41
2022-11-28T08:14:14.657Z,7.08
2022-11-28T08:19:16.332Z,6.49
2022-11-28T08:24:17.995Z,8.68
2022-11-28T08:29:19.685Z,10.29
2022-11-28T08:34:21.316Z,10.33
2022-11-28T08:39:24.563Z,8.30
2022-11-28T08:44:27.482Z,6.97
2022-11-28T08:49:29.081Z,7.95
2022-11-28T08:54:31.454Z,9.96
2022-11-28T08:59:33.150Z,9.93
2022-11-28T09:04:35.196Z,7.94
2022-11-28T09:09:36.816Z,7.53
2022-11-28T09:14:38.697Z,9.63
2022-11-28T09:19:40.822Z,9.92
2022-11-28T09:24:42.642Z,8.00
2022-11-28T09:42:31.197Z,7.85
2022-11-28T09:47:37.861Z,10.31
2022-11-28T09:52:54.646Z,10.67
2022-11-28T09:58:01.661Z,8.39
2022-11-28T10:03:30.977Z,7.40
2022-11-28T10:08:55.335Z,10.05
2022-11-28T10:14:14.610Z,10.13
2022-11-28T10:19:52.724Z,8.04
2022-11-28T10:24:56.349Z,7.11
2022-11-28T10:30:07.726Z,9.41
2022-11-28T10:35:30.322Z,10.91
2022-11-28T10:41:05.652Z,10.06
2022-11-28T10:46:28.081Z,7.90
2022-11-28T10:51:50.237Z,6.70
2022-11-28T10:57:54.829Z,8.04
2022-11-28T11:03:02.488Z,11.03
2022-11-28T11:08:28.305Z,9.62
2022-11-28T11:14:09.649Z,7.76
2022-11-28T11:19:30.653Z,6.63
2022-11-28T11:24:33.719Z,6.02
2022-11-28T11:29:38.306Z,8.53
2022-11-28T11:34:46.234Z,11.10
2022-11-28T11:39:51.948Z,11.10
2022-11-28T11:44:55.838Z,8.80
2022-11-28T11:50:06.180Z,7.46
2022-11-28T11:55:16.435Z,7.08
2022-11-28T12:00:23.361Z,10.04
2022-11-28T12:06:12.868Z,11.09
2022-11-28T12:11:55.307Z,8.81
2022-11-28T12:23:34.110Z,8.16
2022-11-28T12:28:40.461Z,10.86
2022-11-28T12:33:52.458Z,9.74
2022-11-28T12:39:00.962Z,7.82
2022-11-28T12:44:52.614Z,6.77
2022-11-28T12:50:26.088Z,6.03
2022-11-28T12:56:09.776Z,6.30
2022-11-28T13:01:48.070Z,10.03
2022-11-28T13:07:45.022Z,10.57
2022-11-28T13:12:58.397Z,8.21
2022-11-28T13:18:13.676Z,7.04
2022-11-28T13:23:55.885Z,8.09
2022-11-28T13:29:52.915Z,10.84
2022-11-28T13:34:59.353Z,10.36
2022-11-28T13:40:21.599Z,8.36
2022-11-28T13:51:06.590Z,6.35
2022-11-28T13:56:24.209Z,5.75
2022-11-28T14:01:31.335Z,7.57
2022-11-28T14:07:07.874Z,10.19
2022-11-28T14:12:40.600Z,9.46
2022-11-28T14:18:47.893Z,7.68
2022-11-28T14:23:52.535Z,6.69
2022-11-28T14:28:56.632Z,6.07
2022-11-28T14:34:11.084Z,5.60
2022-11-28T14:39:17.279Z,5.16
2022-11-28T14:45:03.422Z,5.08
2022-11-28T14:50:12.320Z,8.66
2022-11-28T14:55:22.258Z,10.27
2022-11-28T15:00:25.785Z,8.85
2022-11-28T15:05:42.439Z,7.46
2022-11-28T15:11:01.158Z,6.58
2022-11-28T15:16:11.649Z,5.93
2022-11-28T15:21:18.286Z,5.38
2022-11-28T15:26:30.205Z,4.93
2022-11-28T15:31:33.315Z,5.87
2022-11-28T15:36:39.487Z,9.08
2022-11-28T15:41:48.629Z,9.52
2022-11-28T15:46:51.778Z,7.51
2022-11-28T15:51:59.842Z,6.30
2022-11-28T15:57:06.888Z,5.49
2022-11-28T16:02:34.063Z,4.91
2022-11-28T16:07:43.070Z,4.44
2022-11-28T16:12:47.732Z,5.51
2022-11-28T16:17:55.894Z,8.99
2022-11-28T16:23:04.929Z,9.50
2022-11-28T16:28:32.125Z,7.38
2022-11-28T16:33:39.778Z,6.07
2022-11-28T16:38:43.901Z,5.94
2022-11-28T16:43:52.935Z,8.46
2022-11-28T16:48:59.046Z,9.92
2022-11-28T16:54:37.761Z,8.52
2022-11-28T16:59:43.807Z,6.59
2022-11-28T17:04:49.519Z,6.84
2022-11-28T17:09:52.526Z,9.00
2022-11-28T17:14:56.866Z,7.73
2022-11-28T17:20:00.413Z,6.17
2022-11-28T17:25:11.056Z,5.35
2022-11-28T17:30:19.762Z,7.26
2022-11-28T17:35:28.623Z,9.36
2022-11-28T17:40:36.696Z,7.63
2022-11-28T17:45:40.171Z,6.06
2022-11-28T17:50:45.253Z,5.15
2022-11-28T17:55:52.411Z,4.51
2022-11-28T18:01:00.550Z,5.85
2022-11-28T18:06:05.622Z,8.30
2022-11-28T18:11:11.170Z,7.64
2022-11-28T18:16:17.977Z,5.93
2022-11-28T18:21:21.539Z,4.98
2022-11-28T18:26:26.312Z,6.25
2022-11-28T18:31:30.486Z,8.59
2022-11-28T18:36:36.535Z,8.20
2022-11-28T18:41:40.415Z,6.26
2022-11-28T18:46:43.557Z,5.12
2022-11-28T18:51:46.613Z,5.64
2022-11-28T18:56:51.909Z,8.12
2022-11-28T19:01:54.997Z,7.43
2022-11-28T19:06:58.007Z,5.68
2022-11-28T19:12:01.182Z,4.62
2022-11-28T19:17:05.168Z,3.89
2022-11-28T19:22:08.602Z,3.37
2022-11-28T19:27:14.566Z,3.44
2022-11-28T19:32:18.334Z,6.28
2022-11-28T19:37:23.449Z,8.10
2022-11-28T19:42:26.552Z,7.97
2022-11-28T19:47:29.586Z,6.04
2022-11-28T19:52:32.657Z,4.86
2022-11-28T19:57:37.445Z,4.05
2022-11-28T20:02:40.838Z,5.00
2022-11-28T20:07:43.990Z,7.57
2022-11-28T20:12:47.006Z,7.70
2022-11-28T20:17:50.085Z,5.81
2022-11-28T20:22:53.134Z,4.67
2022-11-28T20:27:57.082Z,3.87
2022-11-28T20:33:00.095Z,3.33
2022-11-28T20:38:03.217Z,2.95
2022-11-28T20:43:07.517Z,4.35
2022-11-28T20:48:10.481Z,7.13
2022-11-28T20:53:13.479Z,8.51
2022-11-28T20:58:16.490Z,8.37
2022-11-28T21:03:19.591Z,6.24
2022-11-28T21:08:22.602Z,4.93
2022-11-28T21:13:25.840Z,4.08
2022-11-28T21:18:28.818Z,3.46
2022-11-28T21:23:32.585Z,3.00
2022-11-28T21:28:40.463Z,2.73
2022-11-28T21:33:43.514Z,4.90
2022-11-28T21:39:04.705Z,7.48
2022-11-28T21:44:08.211Z,7.69
2022-11-28T21:49:11.342Z,5.77
2022-11-28T21:54:14.305Z,4.65
2022-11-28T21:59:17.359Z,3.97
2022-11-28T22:04:22.123Z,3.45
2022-11-28T22:09:25.165Z,3.04
2022-11-28T22:14:36.355Z,3.48
2022-11-28T22:19:39.690Z,6.61
2022-11-28T22:24:42.716Z,8.12
2022-11-28T22:29:46.447Z,6.52
2022-11-28T22:34:49.475Z,5.10
2022-11-28T22:39:52.479Z,4.23
2022-11-28T22:44:55.518Z,3.61
2022-11-28T22:49:58.543Z,3.14
2022-11-28T22:55:01.615Z,2.78
2022-11-28T23:00:08.978Z,3.67
2022-11-28T23:05:12.020Z,6.93
2022-11-28T23:10:15.257Z,7.60
2022-11-28T23:15:18.669Z,5.81
2022-11-28T23:20:22.325Z,4.70
2022-11-28T23:25:25.363Z,4.01
2022-11-28T23:30:28.564Z,3.46
2022-11-28T23:35:31.950Z,3.02
2022-11-28T23:40:35.207Z,2.67
2022-11-28T23:45:38.486Z,2.41
2022-11-28T23:50:41.643Z,3.42
2022-11-28T23:55:44.723Z,6.70
